YMPC weather

RAAF Williams, Point Cook Base
Point Cook, Victoria, Australia

Public forecast

Using degrees Celsius for public forecast. Weather courtesy of forecast.io.

Closest aviation weather report (METAR) to RAAF Williams, Point Cook Base

Closest report is Melbourne Essendon Airport, 14.1 nm (26.2 km) NNE. Retrieved 2019/10/23 04:00 UTC (7 minutes ago):

YMEN 230400Z AUTO 17010KT 9999 // NCD 28/02 Q1018

Closest aviation forecast (TAF) to RAAF Williams, Point Cook Base

Closest forecast is Avalon Airport, 14.9 nm (27.6 km) WSW. Retrieved 2019-10-23 00:00 UTC (4 hours ago):

TAF YMAV 222303Z 2300/2324 VRB05KT CAVOK FM230400 13008KT CAVOK FM231000 VRB05KT CAVOK FM231800 04010KT CAVOK